Time;durP1;ratioP1;P1;durP2;ratioP2;P2;SDS_P1;SDS_P2;PMS_P1;PMS_P2;Temp;Humidity;BMP_temperature;BMP_pressure;BME280_temperature;BME280_humidity;BME280_pressure;Samples;Min_cycle;Max_cycle;Signal;HPM_P1;HPM_P2
2021/01/03 00:02:13;;;;;;;46.78;20.88;;;5.70;99.90;;;;;;3629361;31;20244;-75
2021/01/03 00:04:40;;;;;;;47.20;20.67;;;5.60;99.90;;;;;;3621799;39;20360;-75
2021/01/03 00:07:07;;;;;;;50.85;22.02;;;5.60;99.90;;;;;;3622228;39;20279;-75
2021/01/03 00:09:34;;;;;;;53.45;24.63;;;5.60;99.90;;;;;;3624804;39;20263;-75
2021/01/03 00:12:00;;;;;;;42.13;20.38;;;5.60;99.90;;;;;;3621691;39;20243;-75
2021/01/03 00:14:30;;;;;;;44.28;21.17;;;5.60;99.90;;;;;;3621523;39;20297;-75
2021/01/03 00:16:59;;;;;;;52.90;21.10;;;5.60;99.90;;;;;;3645786;31;20279;-75
2021/01/03 00:19:26;;;;;;;50.90;22.42;;;5.60;99.90;;;;;;3622862;39;20259;-76
2021/01/03 00:21:52;;;;;;;54.72;22.00;;;5.60;99.90;;;;;;3624179;39;20270;-75
2021/01/03 00:24:20;;;;;;;56.83;22.42;;;5.70;99.90;;;;;;3623892;39;20267;-75
2021/01/03 00:26:47;;;;;;;43.63;20.92;;;5.70;99.90;;;;;;3621920;39;20267;-75
2021/01/03 00:29:14;;;;;;;50.33;22.50;;;5.60;99.90;;;;;;3625469;39;20264;-75
2021/01/03 00:31:43;;;;;;;56.70;24.63;;;5.70;99.90;;;;;;3621626;39;20260;-75
2021/01/03 00:34:09;;;;;;;47.67;21.35;;;5.60;99.90;;;;;;3623275;39;20285;-75
2021/01/03 00:36:36;;;;;;;63.33;23.98;;;5.60;99.90;;;;;;3621385;39;20267;-74
2021/01/03 00:39:04;;;;;;;62.50;24.88;;;5.60;99.90;;;;;;3622421;39;20269;-75
2021/01/03 00:41:31;;;;;;;56.33;22.25;;;5.60;99.90;;;;;;3621295;39;20280;-75
2021/01/03 00:43:58;;;;;;;47.80;20.52;;;5.60;99.90;;;;;;3621710;39;20247;-75
2021/01/03 00:46:24;;;;;;;54.60;21.30;;;5.50;99.90;;;;;;3624116;39;20262;-75
2021/01/03 00:48:51;;;;;;;63.00;23.88;;;5.50;99.90;;;;;;3621445;39;20279;-75
2021/01/03 00:51:17;;;;;;;55.22;23.85;;;5.50;99.90;;;;;;3621617;39;20301;-75
2021/01/03 00:53:44;;;;;;;48.97;21.02;;;5.40;99.90;;;;;;3621803;39;20272;-75
2021/01/03 00:56:10;;;;;;;55.03;23.90;;;5.50;99.90;;;;;;3623515;39;20359;-75
2021/01/03 00:58:37;;;;;;;53.40;22.50;;;5.40;99.90;;;;;;3622004;39;20279;-75
2021/01/03 01:01:04;;;;;;;54.63;22.88;;;5.40;99.90;;;;;;3621466;39;20781;-75
2021/01/03 01:03:31;;;;;;;58.83;22.77;;;5.40;99.90;;;;;;3621255;39;20263;-75
2021/01/03 01:05:57;;;;;;;61.50;23.30;;;5.40;99.90;;;;;;3621155;39;20285;-75
2021/01/03 01:08:24;;;;;;;52.97;24.27;;;5.40;99.90;;;;;;3627366;39;20295;-75
2021/01/03 01:10:51;;;;;;;61.13;25.10;;;5.30;99.90;;;;;;3621251;39;20290;-74
2021/01/03 01:13:17;;;;;;;62.72;23.40;;;5.30;99.90;;;;;;3621673;39;20255;-75
2021/01/03 01:15:45;;;;;;;49.55;22.60;;;5.30;99.90;;;;;;3621199;39;20240;-75
2021/01/03 01:18:11;;;;;;;54.88;23.52;;;5.20;99.90;;;;;;3621114;39;20392;-75
2021/01/03 01:20:38;;;;;;;53.53;23.45;;;5.20;99.90;;;;;;3637514;31;20722;-75
2021/01/03 01:23:04;;;;;;;54.67;23.92;;;5.30;99.90;;;;;;3621809;39;20399;-75
2021/01/03 01:25:33;;;;;;;58.47;24.52;;;5.30;99.90;;;;;;3621139;39;20244;-76
2021/01/03 01:28:01;;;;;;;59.05;25.77;;;5.20;99.90;;;;;;3623819;39;20271;-74
2021/01/03 01:30:30;;;;;;;54.88;25.33;;;5.20;99.90;;;;;;3621105;39;20677;-74
2021/01/03 01:32:58;;;;;;;58.20;26.58;;;5.30;99.90;;;;;;3621507;39;20268;-74
2021/01/03 01:35:27;;;;;;;61.72;24.67;;;5.30;99.90;;;;;;3621151;39;20251;-74
2021/01/03 01:37:53;;;;;;;54.50;25.67;;;5.30;99.90;;;;;;3621489;39;20259;-74
2021/01/03 01:40:22;;;;;;;58.85;25.50;;;5.20;99.90;;;;;;3624679;39;20268;-74
2021/01/03 01:42:50;;;;;;;53.03;24.83;;;5.20;99.90;;;;;;3623897;39;20272;-74
2021/01/03 01:45:20;;;;;;;58.35;25.27;;;5.20;99.90;;;;;;3621209;39;20378;-74
2021/01/03 01:47:50;;;;;;;55.25;24.95;;;5.30;99.90;;;;;;3620846;39;20271;-74
2021/01/03 01:50:24;;;;;;;58.42;24.80;;;5.40;99.90;;;;;;3624180;39;20292;-74
2021/01/03 01:52:56;;;;;;;55.90;24.33;;;5.40;99.90;;;;;;3626303;39;20252;-74
2021/01/03 01:55:27;;;;;;;51.40;22.25;;;5.50;99.90;;;;;;3625025;39;20262;-74
2021/01/03 01:58:02;;;;;;;66.05;26.13;;;5.50;99.90;;;;;;3621294;39;20333;-74
2021/01/03 02:00:33;;;;;;;58.97;25.13;;;5.50;99.90;;;;;;3620916;39;20247;-75
2021/01/03 02:03:06;;;;;;;54.58;24.23;;;5.40;99.90;;;;;;3623771;39;20343;-74
2021/01/03 02:05:38;;;;;;;57.35;25.48;;;5.30;99.90;;;;;;3622685;39;20263;-74
2021/01/03 02:08:11;;;;;;;57.13;26.30;;;5.20;99.90;;;;;;3620838;39;20262;-74
2021/01/03 02:10:40;;;;;;;63.63;26.35;;;5.30;99.90;;;;;;3620912;39;20259;-74
2021/01/03 02:13:17;;;;;;;60.28;28.15;;;5.30;99.90;;;;;;3620900;39;20291;-74
2021/01/03 02:15:43;;;;;;;63.47;27.08;;;5.20;99.90;;;;;;3624284;39;20659;-74
2021/01/03 02:18:12;;;;;;;57.65;24.45;;;5.20;99.90;;;;;;3620172;39;20368;-74
2021/01/03 02:20:51;;;;;;;56.17;25.92;;;5.20;99.90;;;;;;3620475;39;20359;-74
2021/01/03 02:23:26;;;;;;;63.17;26.25;;;5.10;99.90;;;;;;3621427;39;20287;-74
2021/01/03 02:25:54;;;;;;;64.93;26.13;;;5.10;99.90;;;;;;3620017;39;20259;-74
2021/01/03 02:28:22;;;;;;;64.55;26.60;;;5.20;99.90;;;;;;3621808;39;20259;-74
2021/01/03 02:30:52;;;;;;;61.67;27.45;;;5.20;99.90;;;;;;3622791;39;20259;-74
2021/01/03 02:33:23;;;;;;;65.15;27.23;;;5.20;99.90;;;;;;3620084;39;20274;-74
2021/01/03 02:35:55;;;;;;;60.15;26.80;;;5.20;99.90;;;;;;3620385;39;20328;-74
2021/01/03 02:38:25;;;;;;;69.95;27.70;;;5.30;99.90;;;;;;3620488;39;20692;-74
2021/01/03 02:40:53;;;;;;;59.42;25.88;;;5.30;99.90;;;;;;3621852;39;20714;-74
2021/01/03 02:43:19;;;;;;;58.92;25.38;;;5.30;99.90;;;;;;3621943;39;20255;-74
2021/01/03 02:45:46;;;;;;;54.83;25.23;;;5.30;99.90;;;;;;3620050;39;20506;-74
2021/01/03 02:48:17;;;;;;;56.08;25.60;;;5.40;99.90;;;;;;3630406;32;20267;-74
2021/01/03 02:50:43;;;;;;;67.75;26.55;;;5.30;99.90;;;;;;3621778;39;20274;-74
2021/01/03 02:53:10;;;;;;;56.05;25.08;;;5.40;99.90;;;;;;3620311;39;20268;-74
2021/01/03 02:55:36;;;;;;;57.00;25.48;;;5.30;99.90;;;;;;3621107;39;20291;-74
2021/01/03 02:58:04;;;;;;;59.80;27.02;;;5.30;99.90;;;;;;3621800;39;20318;-74
2021/01/03 03:00:32;;;;;;;53.10;25.45;;;5.20;99.90;;;;;;3620164;39;20283;-73
2021/01/03 03:03:00;;;;;;;54.75;24.70;;;5.30;99.90;;;;;;3620305;39;20255;-73
2021/01/03 03:05:27;;;;;;;59.78;26.42;;;5.30;99.90;;;;;;3620569;39;20239;-74
2021/01/03 03:07:54;;;;;;;54.00;24.40;;;5.30;99.90;;;;;;3620277;39;20264;-74
2021/01/03 03:10:21;;;;;;;56.65;23.98;;;5.30;99.90;;;;;;3623256;39;20236;-74
2021/01/03 03:12:49;;;;;;;52.22;24.35;;;5.30;99.90;;;;;;3623209;39;20408;-74
2021/01/03 03:15:17;;;;;;;59.03;25.95;;;5.30;99.90;;;;;;3629416;32;20273;-74
2021/01/03 03:17:44;;;;;;;58.35;26.80;;;5.30;99.90;;;;;;3620813;39;20832;-74
2021/01/03 03:20:12;;;;;;;67.90;26.83;;;5.40;99.90;;;;;;3620587;39;20336;-74
2021/01/03 03:22:39;;;;;;;56.55;25.70;;;5.40;99.90;;;;;;3621589;39;20256;-74
2021/01/03 03:25:08;;;;;;;55.60;24.95;;;5.40;99.90;;;;;;3623269;39;20274;-74
2021/01/03 03:27:35;;;;;;;57.20;25.35;;;5.40;99.90;;;;;;3620110;39;20273;-74
2021/01/03 03:30:01;;;;;;;53.70;23.98;;;5.40;99.90;;;;;;3620659;39;20263;-74
2021/01/03 03:32:29;;;;;;;51.58;23.67;;;5.50;99.90;;;;;;3622012;39;20270;-73
2021/01/03 03:34:55;;;;;;;52.20;24.83;;;5.50;99.90;;;;;;3620338;39;20271;-73
2021/01/03 03:37:22;;;;;;;55.35;24.13;;;5.50;99.90;;;;;;3620356;39;20248;-74
2021/01/03 03:39:48;;;;;;;50.90;24.05;;;5.50;99.90;;;;;;3620573;39;20248;-74
2021/01/03 03:42:15;;;;;;;51.35;22.52;;;5.50;99.90;;;;;;3622109;39;20281;-74
2021/01/03 03:44:41;;;;;;;56.22;25.88;;;5.50;99.90;;;;;;3619550;39;20309;-73
2021/01/03 03:47:07;;;;;;;49.17;22.15;;;5.50;99.90;;;;;;3623972;39;20255;-74
2021/01/03 03:49:35;;;;;;;60.50;23.85;;;5.40;99.90;;;;;;3622752;39;20244;-74
2021/01/03 03:52:04;;;;;;;47.35;22.90;;;5.50;99.90;;;;;;3621972;39;20256;-74
2021/01/03 03:54:31;;;;;;;50.38;22.42;;;5.50;99.90;;;;;;3622917;39;20340;-75
2021/01/03 03:57:00;;;;;;;48.75;21.98;;;5.60;99.90;;;;;;3627905;39;20368;-74
2021/01/03 03:59:27;;;;;;;43.35;21.52;;;5.50;99.90;;;;;;3621786;39;20252;-74
2021/01/03 04:01:54;;;;;;;46.35;20.27;;;5.50;99.90;;;;;;3628365;39;20277;-75
2021/01/03 04:04:22;;;;;;;46.15;20.15;;;5.50;99.90;;;;;;3623112;39;20279;-74
2021/01/03 04:06:49;;;;;;;50.63;22.17;;;5.50;99.90;;;;;;3622839;39;20260;-74
2021/01/03 04:09:17;;;;;;;47.17;22.25;;;5.50;99.90;;;;;;3624098;39;20244;-75
2021/01/03 04:11:46;;;;;;;47.83;21.42;;;5.40;99.90;;;;;;3624905;39;20273;-74
2021/01/03 04:14:15;;;;;;;43.35;21.02;;;5.40;99.90;;;;;;3621714;39;20244;-75
2021/01/03 04:16:46;;;;;;;50.40;22.45;;;5.40;99.90;;;;;;3621820;39;20295;-74
2021/01/03 04:19:13;;;;;;;43.70;20.30;;;5.40;99.90;;;;;;3623171;39;20236;-74
2021/01/03 04:21:39;;;;;;;43.13;20.27;;;5.40;99.90;;;;;;3623659;39;20256;-74
2021/01/03 04:24:08;;;;;;;37.25;18.20;;;5.50;99.90;;;;;;3621451;39;20228;-75
2021/01/03 04:26:35;;;;;;;44.97;19.92;;;5.40;99.90;;;;;;3621730;39;20270;-74
2021/01/03 04:29:01;;;;;;;39.97;19.55;;;5.40;99.90;;;;;;3621523;39;20251;-74
2021/01/03 04:31:29;;;;;;;46.10;20.77;;;5.40;99.90;;;;;;3621603;39;20247;-74
2021/01/03 04:33:55;;;;;;;37.95;19.58;;;5.30;99.90;;;;;;3624396;39;20648;-74
2021/01/03 04:36:22;;;;;;;42.92;19.75;;;5.40;99.90;;;;;;3625127;39;20625;-74
2021/01/03 04:38:48;;;;;;;36.22;18.92;;;5.40;99.90;;;;;;3623653;39;20240;-74
2021/01/03 04:41:25;;;;;;;37.20;19.65;;;5.50;99.90;;;;;;3621841;39;20282;-74
2021/01/03 04:43:52;;;;;;;39.53;18.63;;;5.50;99.90;;;;;;3621652;39;20254;-74
2021/01/03 04:46:21;;;;;;;33.38;17.75;;;5.50;99.90;;;;;;3621505;39;20256;-74
2021/01/03 04:48:53;;;;;;;34.05;18.48;;;5.50;99.90;;;;;;3621231;39;20259;-74
2021/01/03 04:51:31;;;;;;;33.10;18.38;;;5.50;99.90;;;;;;3621687;39;20247;-74
2021/01/03 04:54:03;;;;;;;40.88;18.10;;;5.50;99.90;;;;;;3620453;39;20267;-74
2021/01/03 04:56:50;;;;;;;35.70;17.75;;;5.50;99.90;;;;;;3627893;39;20367;-74
2021/01/03 04:59:24;;;;;;;28.83;16.30;;;5.50;99.90;;;;;;3620996;39;20381;-74
2021/01/03 05:02:30;;;;;;;34.58;16.60;;;5.50;99.90;;;;;;3621939;39;20329;-74
2021/01/03 05:05:19;;;;;;;34.50;17.42;;;5.50;99.90;;;;;;3622162;39;20271;-73
2021/01/03 05:07:56;;;;;;;37.30;16.73;;;5.50;99.90;;;;;;3621393;39;20277;-74
2021/01/03 05:10:25;;;;;;;30.60;16.10;;;5.50;99.90;;;;;;3625406;39;20247;-74
2021/01/03 05:13:05;;;;;;;33.63;16.67;;;5.50;99.90;;;;;;3625719;39;20392;-74
2021/01/03 05:15:33;;;;;;;31.20;16.42;;;5.60;99.90;;;;;;3621797;39;20763;-74
2021/01/03 05:18:01;;;;;;;35.03;17.15;;;5.60;99.90;;;;;;3621372;39;20252;-74
2021/01/03 05:20:28;;;;;;;36.30;18.63;;;5.60;99.90;;;;;;3620827;39;20252;-74
2021/01/03 05:22:54;;;;;;;37.70;16.98;;;5.60;99.90;;;;;;3621744;39;20260;-74
2021/01/03 05:25:39;;;;;;;35.50;17.13;;;5.70;99.90;;;;;;3629144;39;20256;-74
2021/01/03 05:28:12;;;;;;;37.10;18.08;;;5.70;99.90;;;;;;3622491;39;20256;-74
2021/01/03 05:30:39;;;;;;;35.72;17.48;;;5.70;99.90;;;;;;3622856;39;20263;-74
2021/01/03 05:33:08;;;;;;;38.95;17.58;;;5.60;99.90;;;;;;3620707;39;20291;-74
2021/01/03 05:35:41;;;;;;;36.95;17.65;;;5.60;99.90;;;;;;3620159;39;20252;-74
2021/01/03 05:38:09;;;;;;;32.38;16.58;;;5.60;99.90;;;;;;3622377;39;20279;-74
2021/01/03 05:40:39;;;;;;;36.15;18.52;;;5.60;99.90;;;;;;3620648;39;20256;-74
2021/01/03 05:43:15;;;;;;;33.95;17.75;;;5.60;99.90;;;;;;3624218;32;20780;-74
2021/01/03 05:46:00;;;;;;;31.17;17.55;;;5.60;99.90;;;;;;3622414;39;20283;-74
2021/01/03 05:48:33;;;;;;;36.33;18.00;;;5.60;99.90;;;;;;3623778;39;20351;-75
2021/01/03 05:50:59;;;;;;;38.90;17.85;;;5.60;99.90;;;;;;3621116;39;20278;-74
2021/01/03 05:53:28;;;;;;;34.65;17.10;;;5.60;99.90;;;;;;3620564;39;20749;-75
2021/01/03 05:55:58;;;;;;;34.72;17.20;;;5.50;99.90;;;;;;3621336;39;20281;-75
2021/01/03 05:58:36;;;;;;;34.22;15.73;;;5.60;99.90;;;;;;3624347;39;20252;-75
2021/01/03 06:01:16;;;;;;;32.13;15.43;;;5.50;99.90;;;;;;3635588;31;20277;-75
2021/01/03 06:03:43;;;;;;;33.72;16.02;;;5.40;99.90;;;;;;3621843;39;20247;-74
2021/01/03 06:06:14;;;;;;;27.02;15.05;;;5.30;99.90;;;;;;3620896;39;20299;-75
2021/01/03 06:08:42;;;;;;;27.90;13.80;;;5.20;99.90;;;;;;3620540;39;20267;-75
2021/01/03 06:11:14;;;;;;;27.63;13.18;;;5.10;99.90;;;;;;3623871;39;20252;-75
2021/01/03 06:13:50;;;;;;;28.73;13.35;;;5.10;99.90;;;;;;3620946;39;20292;-75
2021/01/03 06:16:21;;;;;;;26.10;13.32;;;5.10;99.90;;;;;;3620895;39;21200;-75
2021/01/03 06:18:51;;;;;;;29.85;13.13;;;5.10;99.90;;;;;;3620647;39;20268;-75
2021/01/03 06:21:25;;;;;;;26.90;13.73;;;5.00;99.90;;;;;;3621586;39;20355;-75
2021/01/03 06:24:06;;;;;;;26.65;13.00;;;4.90;99.90;;;;;;3620923;39;20286;-74
2021/01/03 06:26:36;;;;;;;23.27;11.40;;;4.90;99.90;;;;;;3620789;39;20279;-74
2021/01/03 06:29:14;;;;;;;26.08;12.77;;;4.90;99.90;;;;;;3620615;39;20339;-74
2021/01/03 06:32:16;;;;;;;19.45;11.70;;;4.90;99.90;;;;;;3621088;39;20260;-75
2021/01/03 06:34:50;;;;;;;19.17;10.50;;;4.90;99.90;;;;;;3613358;39;20598;-74
2021/01/03 06:37:27;;;;;;;20.75;9.75;;;4.90;99.90;;;;;;3620530;39;20267;-74
2021/01/03 06:40:00;;;;;;;20.08;10.80;;;4.80;99.90;;;;;;3620117;39;20869;-75
2021/01/03 06:43:04;;;;;;;18.77;10.73;;;4.60;99.90;;;;;;3623604;39;20371;-75
2021/01/03 06:46:03;;;;;;;16.58;9.48;;;4.60;99.90;;;;;;3624158;39;20247;-74
2021/01/03 06:49:05;;;;;;;19.50;10.20;;;4.50;99.90;;;;;;3623003;39;20244;-74
2021/01/03 06:51:54;;;;;;;18.75;10.52;;;4.50;99.90;;;;;;3608154;39;20248;-73
2021/01/03 06:54:56;;;;;;;17.65;10.60;;;4.50;99.90;;;;;;3623222;39;20252;-74
2021/01/03 06:57:54;;;;;;;21.35;10.88;;;4.60;99.90;;;;;;3623023;39;20262;-73
2021/01/03 07:00:24;;;;;;;17.55;9.82;;;4.50;99.90;;;;;;3620433;39;20252;-73
2021/01/03 07:02:59;;;;;;;17.25;9.60;;;4.60;99.90;;;;;;3630932;31;20273;-73
2021/01/03 07:05:25;;;;;;;22.13;10.90;;;4.50;99.90;;;;;;3620242;39;20259;-73
2021/01/03 07:08:01;;;;;;;17.85;9.48;;;4.50;99.90;;;;;;3620153;39;20247;-74
2021/01/03 07:10:34;;;;;;;21.42;10.52;;;4.50;99.90;;;;;;3619880;39;20266;-73
2021/01/03 07:13:02;;;;;;;18.27;9.52;;;4.50;99.90;;;;;;3623000;39;20243;-73
2021/01/03 07:15:40;;;;;;;17.77;9.27;;;4.50;99.90;;;;;;3620153;39;20282;-73
2021/01/03 07:18:26;;;;;;;22.00;9.32;;;4.50;99.90;;;;;;3622936;39;20244;-73
2021/01/03 07:20:57;;;;;;;19.10;9.80;;;4.50;99.90;;;;;;3628611;31;20290;-73
2021/01/03 07:23:32;;;;;;;15.85;9.50;;;4.50;99.90;;;;;;3622433;39;20266;-73
2021/01/03 07:26:12;;;;;;;15.13;9.10;;;4.50;99.90;;;;;;3623816;39;20315;-75
2021/01/03 07:28:39;;;;;;;15.80;9.18;;;4.50;99.90;;;;;;3624057;39;20279;-75
2021/01/03 07:31:12;;;;;;;20.95;9.95;;;4.50;99.90;;;;;;3622519;39;20308;-75
2021/01/03 07:33:49;;;;;;;15.13;9.65;;;4.50;99.90;;;;;;3621911;39;20235;-75
2021/01/03 07:36:36;;;;;;;20.48;10.20;;;4.40;99.90;;;;;;3622314;39;20102;-75
2021/01/03 07:39:15;;;;;;;14.27;9.60;;;4.50;99.90;;;;;;3624644;39;20256;-75
2021/01/03 07:41:43;;;;;;;15.63;9.52;;;4.50;99.90;;;;;;3625376;39;20267;-75
2021/01/03 07:44:11;;;;;;;19.30;8.93;;;4.60;99.90;;;;;;3622178;39;20339;-75
2021/01/03 07:46:56;;;;;;;24.02;10.73;;;4.60;99.90;;;;;;3637827;31;20375;-76
2021/01/03 07:49:45;;;;;;;15.15;9.05;;;4.60;99.90;;;;;;3626248;39;20331;-74
2021/01/03 07:52:39;;;;;;;18.85;9.73;;;4.60;99.90;;;;;;3624870;39;20244;-74
2021/01/03 07:55:24;;;;;;;11.75;8.25;;;4.60;99.90;;;;;;3622279;39;20255;-74
2021/01/03 07:57:54;;;;;;;16.33;9.65;;;4.60;99.90;;;;;;3624457;39;20243;-74
2021/01/03 08:00:22;;;;;;;13.98;8.75;;;4.70;99.90;;;;;;3622379;39;20641;-75
2021/01/03 08:02:54;;;;;;;14.35;8.20;;;4.90;99.90;;;;;;3621762;39;20251;-75
2021/01/03 08:05:23;;;;;;;15.68;8.30;;;4.90;99.90;;;;;;3622637;39;20271;-74
2021/01/03 08:07:50;;;;;;;10.45;6.65;;;4.90;99.90;;;;;;3622173;39;20281;-75
2021/01/03 08:10:18;;;;;;;14.95;8.05;;;5.00;99.90;;;;;;3621983;39;20255;-74
2021/01/03 08:12:48;;;;;;;13.57;7.72;;;4.90;99.90;;;;;;3625160;39;20248;-74
2021/01/03 08:15:26;;;;;;;12.75;7.22;;;4.80;99.90;;;;;;3621822;39;20247;-74
2021/01/03 08:17:58;;;;;;;12.23;7.22;;;4.80;99.90;;;;;;3626048;39;20279;-75
2021/01/03 08:20:26;;;;;;;12.43;7.28;;;4.80;99.90;;;;;;3627177;39;20259;-74
2021/01/03 08:22:53;;;;;;;11.05;7.00;;;4.80;99.90;;;;;;3624439;39;20252;-74
2021/01/03 08:25:22;;;;;;;11.75;6.68;;;4.80;99.90;;;;;;3626576;39;20263;-74
2021/01/03 08:27:54;;;;;;;9.85;6.45;;;4.70;99.90;;;;;;3622424;39;20280;-74
2021/01/03 08:30:24;;;;;;;11.55;7.10;;;4.70;99.90;;;;;;3622712;39;20255;-74
2021/01/03 08:32:52;;;;;;;10.55;6.35;;;4.70;99.90;;;;;;3622591;39;20274;-74
2021/01/03 08:35:29;;;;;;;12.43;7.05;;;4.70;99.90;;;;;;3624897;39;20243;-74
2021/01/03 08:37:56;;;;;;;10.15;7.03;;;4.70;99.90;;;;;;3621218;39;20822;-74
2021/01/03 08:40:27;;;;;;;12.98;7.30;;;4.70;99.90;;;;;;3621362;39;20331;-74
2021/01/03 08:42:59;;;;;;;10.65;6.70;;;4.60;99.90;;;;;;3621871;39;20281;-74
2021/01/03 08:45:31;;;;;;;13.25;6.97;;;4.60;99.90;;;;;;3639144;31;20689;-74
2021/01/03 08:48:02;;;;;;;10.77;7.55;;;4.70;99.90;;;;;;3622256;39;20271;-75
2021/01/03 08:50:32;;;;;;;11.50;5.90;;;4.70;99.90;;;;;;3631603;39;20243;-74
2021/01/03 08:53:00;;;;;;;11.98;7.15;;;4.70;99.90;;;;;;3634863;39;20265;-74
2021/01/03 08:55:29;;;;;;;9.40;6.32;;;4.60;99.90;;;;;;3633793;39;20286;-74
2021/01/03 08:57:58;;;;;;;9.77;6.47;;;4.60;99.90;;;;;;3633611;39;20255;-74
2021/01/03 09:00:27;;;;;;;9.63;6.15;;;4.60;99.90;;;;;;3623718;39;20267;-74
2021/01/03 09:02:57;;;;;;;12.75;7.53;;;4.70;99.90;;;;;;3652737;32;20270;-74
2021/01/03 09:05:30;;;;;;;8.55;5.45;;;4.70;99.90;;;;;;3634140;31;20270;-74
2021/01/03 09:07:57;;;;;;;7.43;4.95;;;4.70;99.90;;;;;;3620214;39;20260;-74
2021/01/03 09:10:31;;;;;;;7.00;5.43;;;4.60;99.90;;;;;;3621066;39;20283;-74
2021/01/03 09:13:24;;;;;;;10.07;5.25;;;4.60;99.90;;;;;;3624505;39;20262;-74
2021/01/03 09:16:18;;;;;;;9.15;5.88;;;4.60;99.90;;;;;;3622410;39;20343;-74
2021/01/03 09:19:01;;;;;;;11.65;6.47;;;4.50;99.90;;;;;;3622631;39;20273;-74
2021/01/03 09:21:29;;;;;;;8.35;5.25;;;4.50;99.90;;;;;;3629151;39;20282;-74
2021/01/03 09:24:03;;;;;;;6.57;4.93;;;4.60;99.90;;;;;;3622056;39;20352;-74
2021/01/03 09:26:36;;;;;;;9.10;5.85;;;4.50;99.90;;;;;;3621294;39;20259;-74
2021/01/03 09:29:10;;;;;;;7.20;5.25;;;4.50;99.90;;;;;;3624920;39;20268;-74
2021/01/03 09:31:39;;;;;;;7.82;5.25;;;4.60;99.90;;;;;;3624007;39;20268;-74
2021/01/03 09:34:14;;;;;;;5.53;3.95;;;4.60;99.90;;;;;;3623668;39;20383;-74
2021/01/03 09:36:51;;;;;;;10.07;5.70;;;4.60;99.90;;;;;;3625579;32;20239;-74
2021/01/03 09:39:37;;;;;;;7.35;4.90;;;4.60;99.90;;;;;;3626026;39;20464;-74
2021/01/03 09:42:37;;;;;;;8.88;5.22;;;4.60;99.90;;;;;;3622963;39;20270;-74
2021/01/03 09:45:33;;;;;;;9.00;5.95;;;4.70;99.90;;;;;;3625467;39;20247;-74
2021/01/03 09:47:59;;;;;;;8.23;5.25;;;4.70;99.90;;;;;;3626561;39;20244;-74
2021/01/03 09:50:32;;;;;;;9.45;4.90;;;4.80;99.90;;;;;;3620519;39;20729;-73
2021/01/03 09:53:11;;;;;;;4.35;3.95;;;4.80;99.90;;;;;;3620765;39;20622;-73
2021/01/03 09:55:48;;;;;;;6.10;4.70;;;4.80;99.90;;;;;;3624761;39;20280;-74
2021/01/03 09:58:14;;;;;;;5.60;4.47;;;4.70;99.90;;;;;;3620289;39;20360;-73
2021/01/03 10:00:51;;;;;;;8.40;5.07;;;4.80;99.90;;;;;;3622800;39;20384;-74
2021/01/03 10:03:21;;;;;;;6.95;4.63;;;4.90;99.90;;;;;;3620884;39;20362;-73
2021/01/03 10:05:49;;;;;;;5.70;4.80;;;4.90;99.90;;;;;;3628593;32;20827;-74
2021/01/03 10:08:23;;;;;;;7.05;4.88;;;4.90;99.90;;;;;;3620699;39;20270;-74
2021/01/03 10:10:52;;;;;;;7.93;4.65;;;4.90;99.90;;;;;;3620242;39;20259;-74
2021/01/03 10:13:20;;;;;;;11.98;5.00;;;5.00;99.90;;;;;;3617759;39;20286;-73
2021/01/03 10:15:49;;;;;;;7.72;4.97;;;5.00;99.90;;;;;;3620408;39;20367;-74
2021/01/03 10:18:32;;;;;;;8.20;4.60;;;5.00;99.90;;;;;;3620065;39;20310;-74
2021/01/03 10:21:00;;;;;;;7.78;4.93;;;5.10;99.90;;;;;;3629508;39;20371;-74
2021/01/03 10:23:35;;;;;;;8.48;4.70;;;5.00;99.90;;;;;;3634053;39;20269;-73
2021/01/03 10:26:04;;;;;;;8.98;4.78;;;5.10;99.90;;;;;;3620200;39;20301;-74
2021/01/03 10:28:32;;;;;;;7.70;5.00;;;5.20;99.90;;;;;;3620773;39;20278;-74
2021/01/03 10:30:58;;;;;;;8.45;5.05;;;5.10;99.90;;;;;;3620420;39;20256;-73
2021/01/03 10:33:25;;;;;;;6.68;4.90;;;5.10;99.90;;;;;;3623610;39;20367;-74
2021/01/03 10:35:52;;;;;;;5.65;4.65;;;5.10;99.90;;;;;;3622692;39;20333;-73
2021/01/03 10:38:18;;;;;;;6.15;4.57;;;5.00;99.90;;;;;;3622557;39;20278;-73
2021/01/03 10:40:45;;;;;;;6.47;5.10;;;5.00;99.90;;;;;;3625575;39;20347;-74
2021/01/03 10:43:12;;;;;;;5.88;4.40;;;5.10;99.90;;;;;;3625351;39;20375;-74
2021/01/03 10:45:39;;;;;;;7.05;4.00;;;5.30;99.90;;;;;;3627140;39;20255;-74
2021/01/03 10:48:06;;;;;;;5.07;4.15;;;5.10;99.90;;;;;;3624787;39;20251;-74
2021/01/03 10:50:33;;;;;;;6.50;4.63;;;5.20;99.90;;;;;;3624754;39;20386;-74
2021/01/03 10:53:00;;;;;;;5.55;4.20;;;5.20;99.90;;;;;;3634004;32;20285;-74
2021/01/03 10:55:26;;;;;;;5.22;4.65;;;5.10;99.90;;;;;;3625066;39;20267;-74
2021/01/03 10:57:56;;;;;;;4.45;3.83;;;5.10;99.90;;;;;;3619931;39;20270;-74
2021/01/03 11:00:24;;;;;;;5.85;4.45;;;5.10;99.90;;;;;;3620355;39;20517;-74
2021/01/03 11:08:15;;;;;;;6.90;4.60;;;5.10;99.90;;;;;;3630060;32;20251;-72
2021/01/03 11:10:41;;;;;;;7.65;4.72;;;5.20;99.90;;;;;;3632158;39;20674;-73
2021/01/03 11:13:08;;;;;;;9.52;4.80;;;5.10;99.90;;;;;;3641948;31;20232;-73
2021/01/03 11:15:34;;;;;;;7.78;5.15;;;5.10;99.90;;;;;;3632131;39;20269;-72
2021/01/03 11:18:01;;;;;;;5.20;4.32;;;5.10;99.90;;;;;;3631613;39;20281;-72
2021/01/03 11:20:28;;;;;;;6.88;5.10;;;5.10;99.90;;;;;;3629014;39;20259;-72
2021/01/03 11:22:54;;;;;;;5.07;4.20;;;5.10;99.90;;;;;;3629723;39;20395;-72
2021/01/03 11:25:22;;;;;;;5.95;4.20;;;5.20;99.90;;;;;;3630778;39;20266;-73
2021/01/03 11:27:48;;;;;;;5.68;4.43;;;5.30;99.90;;;;;;3629707;39;20258;-72
2021/01/03 11:30:16;;;;;;;5.07;4.25;;;5.30;99.90;;;;;;3630659;39;20240;-72
2021/01/03 11:32:43;;;;;;;6.55;4.63;;;5.20;99.90;;;;;;3626204;39;20259;-72
2021/01/03 11:35:11;;;;;;;4.47;3.92;;;5.10;99.90;;;;;;3629487;39;20275;-72
2021/01/03 11:37:38;;;;;;;6.15;4.15;;;5.10;99.90;;;;;;3628221;39;20363;-72
2021/01/03 11:40:06;;;;;;;6.13;4.82;;;5.00;99.90;;;;;;3631215;39;20279;-72
2021/01/03 11:42:36;;;;;;;6.22;5.18;;;5.00;99.90;;;;;;3631050;39;20351;-72
2021/01/03 11:45:05;;;;;;;8.15;6.18;;;5.00;99.90;;;;;;3629402;39;20371;-73
2021/01/03 11:47:32;;;;;;;5.93;5.30;;;5.00;99.90;;;;;;3626919;39;20272;-72
2021/01/03 11:49:58;;;;;;;6.47;4.35;;;5.00;99.90;;;;;;3629645;39;20321;-72
2021/01/03 11:52:25;;;;;;;6.78;4.45;;;5.00;99.90;;;;;;3629861;39;20336;-73
2021/01/03 11:54:51;;;;;;;6.43;4.00;;;5.10;99.90;;;;;;3631147;39;20239;-72
2021/01/03 11:57:18;;;;;;;7.50;4.68;;;5.00;99.90;;;;;;3627403;39;20248;-72
2021/01/03 11:59:45;;;;;;;5.22;3.90;;;5.00;99.90;;;;;;3632454;39;20275;-73
2021/01/03 12:02:12;;;;;;;7.25;3.60;;;5.00;99.90;;;;;;3632878;39;20252;-72
2021/01/03 12:04:39;;;;;;;4.80;4.18;;;5.00;99.90;;;;;;3629394;39;20255;-73
2021/01/03 12:07:08;;;;;;;6.43;4.65;;;5.10;99.90;;;;;;3629066;39;20632;-72
2021/01/03 12:09:35;;;;;;;6.85;4.22;;;5.00;99.90;;;;;;3630747;39;20363;-72
2021/01/03 12:12:06;;;;;;;5.00;4.50;;;4.90;99.90;;;;;;3632484;39;20274;-72
2021/01/03 12:14:33;;;;;;;4.85;4.35;;;4.90;99.90;;;;;;3624481;39;20299;-72
2021/01/03 12:17:03;;;;;;;7.00;4.88;;;4.90;99.90;;;;;;3623980;39;20259;-72
2021/01/03 12:19:30;;;;;;;5.82;4.95;;;4.90;99.90;;;;;;3621522;39;20304;-72
2021/01/03 12:21:57;;;;;;;8.25;5.13;;;5.00;99.90;;;;;;3624053;39;20248;-72
2021/01/03 12:24:23;;;;;;;6.65;4.70;;;5.10;99.90;;;;;;3629748;32;20267;-72
2021/01/03 12:26:50;;;;;;;7.50;5.18;;;5.10;99.90;;;;;;3627352;39;20248;-72
2021/01/03 12:29:18;;;;;;;6.55;4.45;;;5.10;99.90;;;;;;3624709;39;20248;-72
2021/01/03 12:31:47;;;;;;;7.40;5.13;;;5.10;99.90;;;;;;3626744;39;20255;-73
2021/01/03 12:34:16;;;;;;;6.10;4.80;;;5.00;99.90;;;;;;3627267;39;20275;-72
2021/01/03 12:36:43;;;;;;;7.63;4.93;;;5.00;99.90;;;;;;3626323;39;20360;-72
2021/01/03 12:39:12;;;;;;;9.77;4.63;;;4.90;99.90;;;;;;3624058;39;20240;-72
2021/01/03 12:41:39;;;;;;;7.35;5.45;;;5.00;99.90;;;;;;3624229;39;20788;-72
2021/01/03 12:44:07;;;;;;;8.20;5.88;;;5.00;99.90;;;;;;3623746;39;20274;-72
2021/01/03 12:46:36;;;;;;;7.50;5.75;;;5.00;99.90;;;;;;3644670;32;20991;-73
2021/01/03 12:49:04;;;;;;;5.93;5.18;;;5.10;99.90;;;;;;3638060;32;20255;-72
2021/01/03 12:51:32;;;;;;;6.07;4.57;;;5.10;99.90;;;;;;3626591;39;20263;-72
2021/01/03 12:53:59;;;;;;;19.55;10.73;;;5.10;99.90;;;;;;3627794;39;20251;-72
2021/01/03 12:56:26;;;;;;;14.63;7.38;;;5.20;99.90;;;;;;3631305;32;20831;-72
2021/01/03 12:58:53;;;;;;;13.88;7.25;;;5.20;99.90;;;;;;3623323;39;20275;-72
2021/01/03 13:01:22;;;;;;;8.60;5.38;;;5.20;99.90;;;;;;3625156;39;20243;-72
2021/01/03 13:03:49;;;;;;;9.23;5.85;;;5.20;99.90;;;;;;3620926;39;20256;-72
2021/01/03 13:06:16;;;;;;;5.82;4.28;;;5.30;99.90;;;;;;3622951;39;20264;-72
2021/01/03 13:08:43;;;;;;;9.10;5.72;;;5.30;99.90;;;;;;3626436;39;20288;-72
2021/01/03 13:11:09;;;;;;;5.93;4.63;;;5.40;99.90;;;;;;3619485;39;20594;-72